FCPP

Pointe Noire Airport

Pointe Noire, Congo
METAR FCPP 092100Z 22004KT 8000 TS FEW010 FEW030CB 26/24 Q1015 NOSIG
Observed Flight Rules
Dec-9 @ 21:00 UTC (40 minutes ago) Marginal Visual Flight Rules
Wind Visibility Clouds Conditions
220° at 4 knots 7,998 meters
  • Few at 1,000' AGL
  • Few at 3,000' AGL
  • Thunderstorm
Temperatures Readings
Current 26°C / 79°F
Dewpoint 24°C / 75°F
Humidity 89%
Altimeter 29.97" Hg
Pressure 1015 hPa
Elevation 17
METAR FCPP 092100Z 22004KT 8000 TS FEW010 FEW030CB 26/24 Q1015 NOSIG
Observed Flight Rules
Dec-9 @ 21:00 UTC
(40 minutes ago)
MVFR
Wind Visibility
220° at 4 knots 7,998 meters
Clouds
  • Few at 1,000' AGL
  • Few at 3,000' AGL
Conditions
  • Thunderstorm
Temperature Dewpoint
26°C / 79°F 24°C / 75°F
Humidity Altimeter Pressure
89% 29.97" Hg 1015 hPa